Time;durP1;ratioP1;P1;durP2;ratioP2;P2;SDS_P1;SDS_P2;PMS_P1;PMS_P2;Temp;Humidity;BMP_temperature;BMP_pressure;BME280_temperature;BME280_humidity;BME280_pressure;Samples;Min_cycle;Max_cycle;Signal;HPM_P1;HPM_P2
2021/01/22 00:00:46;;;;;;;38.77;15.47;;;;;;;6.16;65.66;99007.73;4971853;58;1136332;-86
2021/01/22 00:05:52;;;;;;;27.43;13.10;;;;;;;6.11;65.86;99008.10;4994592;58;1136284;-87
2021/01/22 00:10:58;;;;;;;24.50;10.77;;;;;;;6.04;65.84;99006.12;5000518;58;1136305;-87
2021/01/22 00:16:04;;;;;;;18.48;8.95;;;;;;;5.97;66.11;98990.05;4975096;58;1136662;-87
2021/01/22 00:21:09;;;;;;;37.37;15.40;;;;;;;5.98;66.27;98986.46;4978102;58;1134115;-87
2021/01/22 00:26:15;;;;;;;23.57;11.03;;;;;;;5.95;66.50;98982.81;4965736;58;1136568;-87
2021/01/22 00:31:20;;;;;;;33.30;14.63;;;;;;;5.91;66.61;98984.84;4972974;58;1136824;-87
2021/01/22 00:36:26;;;;;;;40.13;14.60;;;;;;;5.87;66.75;98976.84;4994530;58;1136136;-86
2021/01/22 00:41:32;;;;;;;24.03;11.27;;;;;;;5.87;66.86;98971.59;5009785;58;1136375;-87
2021/01/22 00:46:38;;;;;;;19.40;8.70;;;;;;;5.91;66.81;98974.83;4974251;57;1138609;-87
2021/01/22 00:51:43;;;;;;;25.17;11.15;;;;;;;5.93;66.74;98965.05;5033207;58;1132183;-86
2021/01/22 00:56:49;;;;;;;28.30;9.83;;;;;;;5.92;66.65;98964.69;4978378;58;1136316;-87
2021/01/22 01:01:54;;;;;;;19.83;9.80;;;;;;;5.87;66.92;98966.34;4975139;58;1134282;-87
2021/01/22 01:07:00;;;;;;;14.20;6.47;;;;;;;5.84;66.36;98961.82;4965852;58;1134425;-88
2021/01/22 01:12:07;;;;;;;23.27;10.00;;;;;;;5.89;66.68;98953.12;4997599;58;1136292;-86
2021/01/22 01:17:20;;;;;;;16.53;7.77;;;;;;;5.90;66.87;98954.32;4986738;58;1136233;-87
2021/01/22 01:22:25;;;;;;;24.33;10.13;;;;;;;5.90;66.82;98951.70;4995187;57;1134174;-87
2021/01/22 01:27:31;;;;;;;22.20;10.03;;;;;;;5.91;66.81;98940.24;4981324;58;1136269;-87
2021/01/22 01:32:36;;;;;;;21.87;9.83;;;;;;;5.89;66.74;98926.42;4981453;58;1136287;-87
2021/01/22 01:37:42;;;;;;;20.48;9.05;;;;;;;5.93;66.94;98916.02;5004869;58;1134169;-87
2021/01/22 01:42:47;;;;;;;17.47;9.40;;;;;;;5.97;67.10;98908.22;4974962;58;1134390;-87
2021/01/22 01:47:53;;;;;;;12.27;6.10;;;;;;;5.99;67.12;98891.88;5013345;58;1134107;-87
2021/01/22 01:52:59;;;;;;;21.17;8.87;;;;;;;6.00;66.35;98887.45;5020014;58;1134407;-87
2021/01/22 01:58:06;;;;;;;17.40;8.33;;;;;;;6.00;66.66;98865.98;4977085;57;1134401;-87
2021/01/22 02:03:12;;;;;;;19.05;8.75;;;;;;;6.00;67.04;98867.30;4953516;59;1134107;-87
2021/01/22 02:08:19;;;;;;;13.00;6.30;;;;;;;6.01;66.73;98860.25;4856517;59;1134119;-87
2021/01/22 02:13:25;;;;;;;20.33;9.07;;;;;;;5.99;66.76;98869.56;4855559;60;1134206;-87
2021/01/22 02:18:31;;;;;;;15.43;7.40;;;;;;;5.94;67.12;98867.83;5004021;57;1134606;-87
2021/01/22 02:23:45;;;;;;;16.80;9.40;;;;;;;5.93;66.98;98861.41;5046000;57;1134052;-86
2021/01/22 02:28:49;;;;;;;17.70;9.87;;;;;;;5.90;66.83;98848.53;5049975;57;1134447;-87
2021/01/22 02:33:59;;;;;;;25.13;10.90;;;;;;;5.86;66.93;98843.99;4888822;58;1134542;-87
2021/01/22 02:39:08;;;;;;;15.85;7.72;;;;;;;5.85;66.61;98857.23;5089654;57;1134765;-88
2021/01/22 02:44:14;;;;;;;19.17;7.50;;;;;;;5.84;66.69;98849.84;5014826;57;1136450;-87
2021/01/22 02:49:19;;;;;;;18.60;8.13;;;;;;;5.81;66.38;98844.84;5005683;57;1134157;-87
2021/01/22 02:54:25;;;;;;;13.27;6.97;;;;;;;5.79;66.51;98842.03;5007996;57;1134585;-88
2021/01/22 02:59:59;;;;;;;19.57;7.93;;;;;;;5.73;66.67;98827.63;5007124;57;1134122;-87
2021/01/22 03:05:07;;;;;;;15.63;7.10;;;;;;;5.71;66.52;98806.42;4891305;58;1134688;-88
2021/01/22 03:10:17;;;;;;;14.53;7.25;;;;;;;5.66;66.05;98801.56;5029442;57;1134529;-87
2021/01/22 03:15:23;;;;;;;11.80;5.77;;;;;;;5.71;66.51;98811.67;5013786;57;1136266;-87
2021/01/22 03:20:29;;;;;;;14.95;6.47;;;;;;;5.73;66.35;98806.65;5048038;57;1134107;-87
2021/01/22 03:25:35;;;;;;;14.00;6.53;;;;;;;5.74;66.20;98791.74;4914454;58;1134177;-87
2021/01/22 03:30:40;;;;;;;18.37;6.73;;;;;;;5.78;66.08;98781.34;4854962;59;1134196;-87
2021/01/22 03:35:47;;;;;;;9.93;4.17;;;;;;;5.80;65.57;98763.21;4920340;59;1134296;-88
2021/01/22 03:40:52;;;;;;;10.87;5.13;;;;;;;5.86;65.46;98759.20;4825055;59;1132544;-87
2021/01/22 03:45:58;;;;;;;13.93;5.50;;;;;;;5.89;65.52;98755.05;4920579;58;1134155;-87
2021/01/22 03:51:03;;;;;;;15.60;6.17;;;;;;;5.92;65.12;98754.30;4856162;60;1134312;-88
2021/01/22 03:56:09;;;;;;;9.70;5.40;;;;;;;5.96;65.34;98747.80;4916867;59;1134443;-87
2021/01/22 04:01:14;;;;;;;8.53;4.90;;;;;;;5.98;64.27;98728.83;4901790;59;1132339;-87
2021/01/22 04:06:20;;;;;;;13.70;5.37;;;;;;;6.01;64.03;98723.80;4956448;59;1132151;-87
2021/01/22 04:11:26;;;;;;;12.83;6.03;;;;;;;5.99;63.93;98720.47;4937263;59;1134358;-87
2021/01/22 04:16:31;;;;;;;11.33;5.47;;;;;;;5.95;63.81;98721.73;4956437;59;1134412;-87
2021/01/22 04:21:36;;;;;;;15.90;6.67;;;;;;;5.91;64.34;98725.09;4937242;59;1134302;-87
2021/01/22 04:26:42;;;;;;;10.20;4.83;;;;;;;5.90;64.82;98729.16;4937054;59;1134149;-87
2021/01/22 04:31:48;;;;;;;12.03;5.93;;;;;;;5.85;64.42;98719.50;4937345;59;1134380;-87
2021/01/22 04:36:53;;;;;;;11.95;5.47;;;;;;;5.89;64.89;98706.51;4975287;59;1134075;-87
2021/01/22 04:42:00;;;;;;;11.53;5.80;;;;;;;5.95;64.61;98695.49;4956094;59;1136368;-87
2021/01/22 04:47:09;;;;;;;13.00;4.77;;;;;;;5.95;64.81;98691.55;4937672;59;1134319;-87
2021/01/22 04:52:15;;;;;;;13.20;5.00;;;;;;;5.94;64.58;98688.10;4935985;59;1134148;-87
2021/01/22 04:57:21;;;;;;;10.10;4.43;;;;;;;5.93;64.98;98689.06;4937722;59;1134218;-87
2021/01/22 05:02:26;;;;;;;12.17;5.33;;;;;;;5.93;64.85;98671.17;4933550;59;1134217;-87
2021/01/22 05:07:32;;;;;;;10.03;4.73;;;;;;;5.91;64.65;98659.98;4851251;59;1134200;-87
2021/01/22 05:12:46;;;;;;;8.83;4.97;;;;;;;5.90;65.00;98653.08;4840913;59;1134222;-87
2021/01/22 05:18:04;;;;;;;11.20;4.83;;;;;;;5.92;64.97;98636.23;4884549;59;1132646;-87
2021/01/22 05:23:11;;;;;;;7.13;4.40;;;;;;;5.94;65.12;98626.44;4850111;59;1134648;-87
2021/01/22 05:28:17;;;;;;;9.93;4.90;;;;;;;5.96;65.43;98612.67;4897705;59;1132276;-86
2021/01/22 05:33:22;;;;;;;61.37;28.17;;;;;;;5.94;65.45;98594.95;4850919;59;1132290;-87
2021/01/22 05:38:41;;;;;;;23.13;9.90;;;;;;;5.93;65.90;98574.10;4771721;60;1136312;-87
2021/01/22 05:43:49;;;;;;;12.97;7.57;;;;;;;5.91;66.22;98566.84;4844303;60;1134639;-87
2021/01/22 05:49:14;;;;;;;47.80;17.97;;;;;;;5.88;66.61;98569.70;4904311;59;1134096;-87
2021/01/22 05:54:39;;;;;;;30.23;12.47;;;;;;;5.82;67.11;98564.52;4855398;58;1136259;-87
2021/01/22 05:59:45;;;;;;;11.63;6.13;;;;;;;5.70;68.01;98583.97;4799907;60;1136148;-88
2021/01/22 06:05:12;;;;;;;17.63;6.20;;;;;;;5.68;68.26;98579.81;4820766;59;1136456;-87
2021/01/22 06:10:23;;;;;;;14.90;6.10;;;;;;;5.66;68.35;98579.95;4912478;59;1134158;-87
2021/01/22 06:15:30;;;;;;;14.67;7.13;;;;;;;5.62;68.95;98563.68;4857803;59;1134315;-88
2021/01/22 06:20:40;;;;;;;21.47;8.63;;;;;;;5.62;69.02;98583.83;4875460;59;1134064;-88
2021/01/22 06:25:46;;;;;;;51.93;7.10;;;;;;;5.64;69.13;98588.46;4852738;59;1134260;-88
2021/01/22 06:30:53;;;;;;;15.17;5.30;;;;;;;5.71;69.13;98574.30;4776480;60;1136212;-88
2021/01/22 06:35:59;;;;;;;32.63;10.67;;;;;;;5.72;69.24;98589.91;4886103;59;1134617;-88
2021/01/22 06:41:05;;;;;;;13.03;5.50;;;;;;;5.74;69.44;98596.34;4864019;59;1136376;-88
2021/01/22 06:46:15;;;;;;;13.73;5.37;;;;;;;5.67;69.59;98606.52;4840133;59;1134205;-89
2021/01/22 06:51:21;;;;;;;12.20;4.20;;;;;;;5.81;69.71;98615.80;4869369;59;1135138;-88
2021/01/22 06:56:27;;;;;;;9.67;5.23;;;;;;;5.81;69.89;98600.06;4755430;60;1134092;-89
2021/01/22 07:01:35;;;;;;;12.13;4.53;;;;;;;5.82;69.98;98597.30;4840493;60;1132475;-88
2021/01/22 07:06:48;;;;;;;15.73;5.80;;;;;;;5.84;70.03;98580.12;4903242;58;1134357;-89
2021/01/22 07:11:56;;;;;;;9.03;5.00;;;;;;;5.85;70.03;98581.78;4863262;59;1134672;-88
2021/01/22 07:17:20;;;;;;;20.27;11.33;;;;;;;5.84;70.26;98580.95;4971135;57;1132531;-87
2021/01/22 07:22:28;;;;;;;22.90;12.17;;;;;;;5.86;70.31;98569.84;5000000;57;1136525;-88
2021/01/22 07:27:44;;;;;;;14.17;6.80;;;;;;;5.90;70.55;98562.56;4832435;59;1138587;-88
2021/01/22 07:32:52;;;;;;;18.10;8.27;;;;;;;5.88;70.61;98566.63;4829418;59;1134215;-89
2021/01/22 07:37:58;;;;;;;14.70;6.37;;;;;;;5.84;70.72;98561.27;4840606;59;1134232;-90
2021/01/22 07:43:08;;;;;;;13.53;6.23;;;;;;;5.82;71.01;98561.06;4831047;59;1134271;-90
2021/01/22 07:48:16;;;;;;;20.97;8.73;;;;;;;5.84;70.83;98578.80;5009264;57;1139841;-90
2021/01/22 07:53:22;;;;;;;25.90;12.18;;;;;;;5.82;71.09;98581.56;5003279;57;1134305;-89
2021/01/22 07:58:27;;;;;;;28.95;11.57;;;;;;;5.76;71.21;98559.83;5024945;58;1136701;-89
2021/01/22 08:03:45;;;;;;;12.33;5.53;;;;;;;5.81;71.34;98556.30;5005577;57;1136242;-89
2021/01/22 08:09:12;;;;;;;24.80;8.70;;;;;;;5.86;71.32;98569.84;4907131;58;1136662;-89
2021/01/22 08:14:31;;;;;;;16.62;6.50;;;;;;;5.89;71.35;98556.48;4840904;60;1134453;-89
2021/01/22 08:19:38;;;;;;;20.77;9.90;;;;;;;5.95;71.36;98552.49;4941266;58;1134603;-89
2021/01/22 08:24:51;;;;;;;15.93;8.20;;;;;;;6.14;71.23;98552.95;4902541;57;1136286;-89
2021/01/22 08:29:56;;;;;;;;;;;;;;;6.27;70.92;98553.48;4980497;58;1134881;-89
2021/01/22 08:35:02;;;;;;;18.50;6.10;;;;;;;6.59;70.43;98551.84;4976478;58;969634;-87
2021/01/22 08:40:09;;;;;;;11.20;6.60;;;;;;;6.84;69.11;98551.73;4970548;57;1132461;-89
2021/01/22 08:45:14;;;;;;;8.83;4.60;;;;;;;7.03;69.06;98534.55;4812651;59;1134268;-89
2021/01/22 08:50:21;;;;;;;13.40;5.73;;;;;;;7.21;67.70;98531.49;4976969;58;1132706;-89
2021/01/22 08:55:27;;;;;;;11.63;5.67;;;;;;;7.35;67.97;98532.31;4969619;58;1134398;-89
2021/01/22 09:00:33;;;;;;;31.93;9.63;;;;;;;7.50;67.31;98542.34;4977239;58;1136292;-89
2021/01/22 09:05:44;;;;;;;27.60;9.03;;;;;;;7.55;67.53;98540.09;4985629;58;1134584;-90
2021/01/22 09:10:51;;;;;;;12.33;6.00;;;;;;;7.71;66.69;98542.90;4964837;58;1134192;-90
2021/01/22 09:16:09;;;;;;;32.17;10.80;;;;;;;7.80;66.92;98538.05;4972626;58;1134239;-89
2021/01/22 09:21:14;;;;;;;15.90;5.80;;;;;;;7.85;66.78;98540.23;4971714;58;1138648;-90
2021/01/22 09:26:20;;;;;;;25.60;6.93;;;;;;;7.95;67.10;98551.51;4976891;58;1134362;-89
2021/01/22 09:31:25;;;;;;;27.60;10.00;;;;;;;8.09;66.50;98542.63;4995769;58;1134589;-89
2021/01/22 09:36:31;;;;;;;11.83;6.33;;;;;;;8.08;66.06;98537.50;4977366;57;1136384;-89
2021/01/22 09:41:36;;;;;;;17.03;6.87;;;;;;;8.09;65.64;98540.48;5005156;57;1134330;-88
2021/01/22 09:46:44;;;;;;;18.80;6.37;;;;;;;8.17;65.67;98537.89;4970747;57;1136427;-89
2021/01/22 09:51:49;;;;;;;8.07;5.30;;;;;;;8.22;63.77;98549.30;4970723;58;1136251;-86
2021/01/22 09:56:55;;;;;;;32.80;8.07;;;;;;;8.27;64.83;98527.27;4961973;58;1132590;-87
2021/01/22 10:02:00;;;;;;;20.30;7.70;;;;;;;8.38;64.91;98526.58;5008591;58;1134125;-86
2021/01/22 10:07:06;;;;;;;25.10;11.07;;;;;;;8.51;65.27;98522.70;4970819;58;1134509;-87
2021/01/22 10:12:13;;;;;;;14.30;5.20;;;;;;;8.63;65.19;98517.52;4990935;57;1136441;-87
2021/01/22 10:17:20;;;;;;;27.77;11.63;;;;;;;8.77;63.24;98518.25;4890664;58;1134591;-86
2021/01/22 10:22:26;;;;;;;21.97;7.43;;;;;;;8.85;63.86;98512.21;4929881;58;1136520;-87
2021/01/22 10:27:32;;;;;;;15.77;5.77;;;;;;;8.92;62.96;98529.86;4919851;58;1134340;-87
2021/01/22 10:32:37;;;;;;;29.70;8.90;;;;;;;9.02;62.58;98518.70;4854567;59;1134415;-87
2021/01/22 10:37:43;;;;;;;30.80;9.80;;;;;;;9.13;62.78;98514.97;4903605;59;1134147;-86
2021/01/22 10:42:48;;;;;;;17.30;6.33;;;;;;;9.28;62.05;98512.55;4892525;59;1134227;-86
2021/01/22 10:47:54;;;;;;;21.37;6.50;;;;;;;9.45;61.71;98500.58;4889466;58;1136208;-87
2021/01/22 10:52:59;;;;;;;19.50;6.73;;;;;;;9.63;61.66;98499.10;4905065;58;1136718;-87
2021/01/22 10:58:05;;;;;;;10.40;4.37;;;;;;;9.82;59.01;98501.94;4898034;59;1137102;-87
2021/01/22 11:03:11;;;;;;;8.77;3.60;;;;;;;9.99;59.28;98494.38;4937865;58;1136759;-88
2021/01/22 11:08:16;;;;;;;4.47;2.77;;;;;;;10.15;57.67;98499.66;4902121;59;1134341;-86
2021/01/22 11:13:22;;;;;;;11.07;4.27;;;;;;;10.34;57.19;98489.77;4904350;58;1136683;-86
2021/01/22 11:18:29;;;;;;;4.57;2.17;;;;;;;10.50;58.09;98497.19;4897035;58;1138582;-86
2021/01/22 11:23:37;;;;;;;6.57;3.00;;;;;;;10.62;55.33;98492.86;4889328;58;1136563;-86
2021/01/22 11:28:42;;;;;;;11.43;3.27;;;;;;;10.66;55.78;98498.97;4889770;58;1136477;-86
2021/01/22 11:33:48;;;;;;;6.13;3.10;;;;;;;10.66;55.72;98480.96;4903431;58;1138716;-86
2021/01/22 11:38:54;;;;;;;7.77;2.40;;;;;;;10.67;55.57;98482.12;4888965;58;1136282;-86
2021/01/22 11:44:01;;;;;;;12.93;4.53;;;;;;;10.73;55.62;98479.27;4880891;58;1136375;-87
2021/01/22 11:49:07;;;;;;;12.40;3.60;;;;;;;10.80;56.35;98477.61;4910469;58;1138450;-86
2021/01/22 11:54:12;;;;;;;12.10;4.40;;;;;;;10.88;56.44;98466.50;4896782;58;1138514;-86
2021/01/22 11:59:20;;;;;;;8.70;4.22;;;;;;;10.96;56.01;98452.44;4898179;58;1138618;-86
2021/01/22 12:04:25;;;;;;;9.65;4.03;;;;;;;10.99;56.19;98453.42;4876431;58;1136511;-86
2021/01/22 12:09:31;;;;;;;13.37;5.43;;;;;;;11.02;56.00;98452.22;4884788;58;1136559;-86
2021/01/22 12:14:39;;;;;;;5.93;2.47;;;;;;;11.09;55.85;98446.58;4877127;58;1138426;-86
2021/01/22 12:19:45;;;;;;;17.03;3.73;;;;;;;11.15;54.76;98445.91;4880256;58;1136909;-85
2021/01/22 12:24:51;;;;;;;12.00;5.93;;;;;;;11.13;56.10;98452.69;4892089;59;1138747;-84
2021/01/22 12:29:57;;;;;;;14.83;6.57;;;;;;;11.10;56.39;98454.34;4884660;58;1138392;-86
2021/01/22 12:35:03;;;;;;;23.63;10.10;;;;;;;11.13;55.96;98457.16;4911279;58;1138367;-86
2021/01/22 12:40:10;;;;;;;10.83;4.83;;;;;;;11.19;56.25;98458.59;4836407;59;1140564;-86
2021/01/22 12:45:24;;;;;;;14.03;5.27;;;;;;;11.38;56.12;98456.02;4898545;59;1138801;-85
2021/01/22 12:50:26;;;;;;;19.30;8.87;;;;;;;11.52;55.39;98461.88;4824655;59;1138799;-86
2021/01/22 12:55:32;;;;;;;12.63;6.30;;;;;;;11.80;54.97;98459.56;4887345;58;1138720;-84
2021/01/22 13:00:38;;;;;;;78.53;38.80;;;;;;;12.14;54.13;98459.13;4847273;59;1138834;-85
2021/01/22 13:05:43;;;;;;;61.47;27.40;;;;;;;12.47;54.81;98460.16;4837735;59;1140454;-85
2021/01/22 13:10:49;;;;;;;45.97;22.00;;;;;;;12.48;54.29;98459.15;4992609;57;1140622;-84
2021/01/22 13:15:55;;;;;;;28.40;11.63;;;;;;;12.53;53.72;98459.41;5007346;57;1140477;-85
2021/01/22 13:21:01;;;;;;;31.80;10.63;;;;;;;12.94;53.58;98460.63;4996253;57;1140582;-84
2021/01/22 13:26:07;;;;;;;32.60;14.20;;;;;;;13.54;52.25;98463.52;5013557;57;1140429;-83
2021/01/22 13:31:13;;;;;;;37.57;17.27;;;;;;;13.65;50.68;98467.00;5005280;57;1140844;-84
2021/01/22 13:36:19;;;;;;;25.75;10.13;;;;;;;13.94;50.40;98466.05;5012149;57;1140758;-83
2021/01/22 13:41:25;;;;;;;11.35;6.53;;;;;;;14.20;50.61;98470.80;5000900;58;1140741;-83
2021/01/22 13:46:30;;;;;;;11.00;3.83;;;;;;;14.22;49.54;98474.56;5023767;57;1138581;-83
2021/01/22 13:51:36;;;;;;;22.40;9.70;;;;;;;14.03;49.34;98481.38;4997733;57;1138477;-85
2021/01/22 13:56:42;;;;;;;20.20;7.60;;;;;;;13.43;51.19;98485.25;5013189;57;1138598;-84
2021/01/22 14:01:49;;;;;;;14.13;5.80;;;;;;;12.80;52.50;98477.88;5003098;57;1138619;-83
2021/01/22 14:06:55;;;;;;;23.30;13.70;;;;;;;12.37;53.07;98479.48;4827667;59;1138865;-83
2021/01/22 14:12:01;;;;;;;12.97;6.47;;;;;;;12.04;54.22;98489.03;4842128;59;1140425;-84
2021/01/22 14:17:07;;;;;;;20.60;9.63;;;;;;;11.78;55.44;98496.49;4838473;59;1138518;-84
2021/01/22 14:22:14;;;;;;;23.50;7.80;;;;;;;11.56;55.80;98502.08;4831620;60;1138370;-84
2021/01/22 14:27:23;;;;;;;8.10;4.62;;;;;;;11.45;56.52;98499.83;4835569;60;1138684;-84
2021/01/22 14:32:29;;;;;;;6.83;3.62;;;;;;;11.35;56.89;98504.49;4944570;57;1136577;-84
2021/01/22 14:37:37;;;;;;;12.47;6.27;;;;;;;11.24;57.20;98507.86;4968218;57;1136514;-85
2021/01/22 14:42:43;;;;;;;275.73;197.50;;;;;;;11.13;57.56;98514.86;4972361;57;1138607;-84
2021/01/22 14:47:52;;;;;;;40.00;23.40;;;;;;;11.03;57.92;98513.39;4975605;57;1144721;-85
2021/01/22 14:53:09;;;;;;;21.47;14.03;;;;;;;10.91;58.47;98513.77;4970333;57;1140390;-85
2021/01/22 15:27:01;;;;;;;22.23;9.83;;;;;;;10.53;60.23;98553.69;5102822;55;46785;-85
2021/01/22 15:32:07;;;;;;;15.13;7.33;;;;;;;10.26;60.64;98571.17;4847162;59;1134218;-85
2021/01/22 15:37:12;;;;;;;23.53;10.97;;;;;;;10.20;60.87;98574.48;4934384;58;1138803;-85
2021/01/22 15:42:18;;;;;;;23.33;12.00;;;;;;;10.17;61.13;98575.60;4956309;58;1140596;-84
2021/01/22 15:47:25;;;;;;;24.90;11.60;;;;;;;10.16;61.09;98573.95;4931771;58;1140558;-85
2021/01/22 15:52:31;;;;;;;21.90;11.57;;;;;;;10.13;61.44;98575.59;4959708;58;1140335;-84
2021/01/22 15:57:37;;;;;;;31.03;16.33;;;;;;;10.12;61.42;98586.31;4941756;58;1140327;-84
2021/01/22 16:02:43;;;;;;;20.13;10.90;;;;;;;10.10;61.61;98583.01;4942850;57;1140633;-86
2021/01/22 16:07:51;;;;;;;23.63;11.93;;;;;;;10.05;61.75;98586.16;4861208;58;1140487;-86
2021/01/22 16:13:03;;;;;;;32.83;16.30;;;;;;;10.05;61.75;98586.16;4901263;58;1140638;-86
2021/01/22 16:18:09;;;;;;;24.93;10.67;;;;;;;10.04;61.72;98575.76;4909059;58;1140305;-86
2021/01/22 16:23:16;;;;;;;47.30;17.33;;;;;;;9.99;61.74;98584.65;4960635;57;1140779;-86
2021/01/22 16:28:23;;;;;;;52.60;30.43;;;;;;;9.85;61.97;98570.27;4792859;58;1138723;-86
2021/01/22 16:33:29;;;;;;;32.08;15.88;;;;;;;9.90;62.02;98584.31;4808136;59;1138614;-86
2021/01/22 16:38:35;;;;;;;41.50;20.00;;;;;;;9.86;62.10;98578.03;4794809;59;1138696;-86
2021/01/22 16:43:41;;;;;;;44.53;25.30;;;;;;;9.81;62.32;98590.05;4810937;59;1138440;-86
2021/01/22 16:48:47;;;;;;;89.23;43.87;;;;;;;9.77;62.46;98588.75;4855529;59;1138417;-86
2021/01/22 16:53:53;;;;;;;213.03;79.30;;;;;;;9.73;62.55;98594.00;4861322;57;1138748;-87
2021/01/22 16:58:59;;;;;;;328.10;114.50;;;;;;;9.74;62.66;98599.63;4863561;58;1140807;-86
2021/01/22 17:04:05;;;;;;;423.63;161.50;;;;;;;9.73;62.74;98605.88;4870437;58;1142770;-86
2021/01/22 17:09:53;;;;;;;;;;;;;;;;;;;;;
2021/01/22 17:15:57;;;;;;;;;;;;;;;;;;;;;
2021/01/22 17:21:13;;;;;;;92.07;38.67;;;;;;;9.64;63.12;98618.70;4502468;63;1138657;-86
2021/01/22 17:26:20;;;;;;;34.87;15.10;;;;;;;9.60;63.28;98614.75;4630149;62;1138963;-87
2021/01/22 17:31:26;;;;;;;31.43;14.90;;;;;;;9.58;63.46;98616.23;4518159;63;1138721;-87
2021/01/22 17:36:36;;;;;;;51.33;24.67;;;;;;;9.59;63.60;98618.38;4553245;63;1138594;-86
2021/01/22 17:41:49;;;;;;;57.13;29.67;;;;;;;9.62;63.54;98613.61;4522959;62;1138762;-86
2021/01/22 17:46:55;;;;;;;52.13;28.00;;;;;;;9.62;63.71;98623.34;4727247;59;1138615;-86
2021/01/22 17:52:16;;;;;;;140.87;53.63;;;;;;;9.59;63.75;98636.84;4881034;58;1138778;-86
2021/01/22 17:57:22;;;;;;;83.03;29.52;;;;;;;9.52;63.65;98661.22;4858126;58;1140942;-86
2021/01/22 18:02:28;;;;;;;191.00;67.37;;;;;;;9.32;63.87;98665.58;4858434;58;1138725;-86
2021/01/22 18:08:24;;;;;;;54.48;24.30;;;;;;;9.17;64.21;98676.67;4832628;58;1140698;-86
2021/01/22 18:13:29;;;;;;;163.03;66.87;;;;;;;9.11;64.38;98687.86;4691226;58;1138650;-86
2021/01/22 18:18:35;;;;;;;124.10;62.15;;;;;;;9.07;64.59;98708.92;4802459;59;1141062;-86
2021/01/22 18:23:44;;;;;;;336.17;128.57;;;;;;;9.01;64.57;98708.20;4813245;59;1140496;-86
2021/01/22 18:28:49;;;;;;;127.83;52.17;;;;;;;8.92;64.24;98722.31;4785092;59;1142563;-86
2021/01/22 18:33:55;;;;;;;54.07;25.43;;;;;;;8.76;64.20;98728.28;4739758;60;1138681;-86
2021/01/22 18:39:05;;;;;;;37.97;17.40;;;;;;;8.61;64.34;98740.33;4741219;60;1138198;-87
2021/01/22 18:44:08;;;;;;;46.77;27.53;;;;;;;8.58;64.49;98754.28;4723060;61;1138787;-86
2021/01/22 18:49:14;;;;;;;191.17;85.60;;;;;;;8.46;64.69;98759.77;4808663;59;1138719;-87
2021/01/22 18:54:19;;;;;;;71.27;33.27;;;;;;;8.50;65.24;98758.16;4939149;57;1140715;-88
2021/01/22 18:59:25;;;;;;;38.80;16.80;;;;;;;8.57;65.35;98767.11;4931953;57;1138674;-91
2021/01/22 19:04:31;;;;;;;110.95;69.12;;;;;;;8.55;65.09;98780.95;4932405;56;1136308;-91
2021/01/22 19:09:37;;;;;;;36.00;15.55;;;;;;;8.46;65.11;98796.66;4963946;56;1138751;-89
2021/01/22 19:14:42;;;;;;;17.67;7.40;;;;;;;8.34;65.02;98807.55;4916909;58;1138615;-91
2021/01/22 19:19:51;;;;;;;159.95;60.10;;;;;;;8.28;65.22;98806.77;4938384;57;1136682;-90
2021/01/22 19:24:57;;;;;;;85.97;37.00;;;;;;;8.37;65.82;98807.26;4904476;56;1140730;-91
2021/01/22 19:30:04;;;;;;;77.77;34.03;;;;;;;8.45;66.00;98812.61;4968515;57;1138457;-91
2021/01/22 19:35:11;;;;;;;14.77;7.70;;;;;;;8.40;65.43;98830.68;5018000;57;1138528;-91
2021/01/22 19:40:16;;;;;;;38.57;19.47;;;;;;;8.22;65.36;98849.02;5017237;57;1134312;-91
2021/01/22 19:45:23;;;;;;;15.10;7.10;;;;;;;8.12;65.84;98846.41;4997889;57;1136496;-90
2021/01/22 19:50:29;;;;;;;24.55;10.05;;;;;;;8.08;65.85;98847.69;4791623;59;1135107;-90
2021/01/22 19:55:35;;;;;;;29.60;12.98;;;;;;;8.06;66.23;98848.80;4900955;58;1136807;-89
2021/01/22 20:00:41;;;;;;;47.27;18.40;;;;;;;8.07;66.40;98871.05;4999992;57;1136146;-91
2021/01/22 20:05:47;;;;;;;37.13;13.23;;;;;;;8.02;65.92;98877.70;4998690;57;1138201;-92
2021/01/22 20:10:53;;;;;;;73.60;38.53;;;;;;;7.94;65.79;98881.55;4997822;56;1138297;-90
2021/01/22 20:15:58;;;;;;;90.47;46.33;;;;;;;7.85;66.08;98882.38;4998254;57;1138441;-89
2021/01/22 20:21:04;;;;;;;91.63;44.90;;;;;;;7.86;65.83;98896.72;4995980;57;1138587;-89
2021/01/22 20:26:10;;;;;;;86.67;40.73;;;;;;;7.66;65.92;98893.76;5017399;57;1136639;-89
2021/01/22 20:31:16;;;;;;;84.83;33.47;;;;;;;7.50;65.96;98889.55;4995970;57;1136477;-90
2021/01/22 20:36:21;;;;;;;33.80;13.37;;;;;;;7.43;66.10;98893.23;4991193;57;1138508;-90
2021/01/22 20:41:27;;;;;;;19.70;8.15;;;;;;;7.44;66.04;98898.01;4990863;57;1138614;-90
2021/01/22 20:46:33;;;;;;;18.27;5.23;;;;;;;7.36;66.13;98904.78;4885484;59;1136341;-90
2021/01/22 20:51:39;;;;;;;7.33;3.47;;;;;;;7.32;66.32;98904.73;4903670;58;1134304;-91
2021/01/22 20:56:45;;;;;;;8.35;3.67;;;;;;;7.25;66.32;98918.55;4965793;57;1132669;-90
2021/01/22 21:01:50;;;;;;;3.80;2.13;;;;;;;7.15;66.49;98933.01;4912339;58;1132354;-90
2021/01/22 21:06:56;;;;;;;34.38;11.03;;;;;;;7.06;66.55;98936.44;4986012;57;1134428;-90
2021/01/22 21:12:03;;;;;;;8.97;3.90;;;;;;;6.97;66.79;98945.97;4987668;57;1136636;-91
2021/01/22 21:17:08;;;;;;;162.00;71.60;;;;;;;6.93;66.97;98948.52;4909310;59;1132261;-91
2021/01/22 21:22:14;;;;;;;283.67;166.03;;;;;;;6.96;67.07;98932.48;4902195;59;1140518;-91
2021/01/22 21:27:19;;;;;;;29.00;12.67;;;;;;;7.05;67.17;98926.40;4901606;58;1143135;-91
2021/01/22 21:32:25;;;;;;;22.37;8.67;;;;;;;7.05;67.02;98943.97;4891676;58;1138656;-91
2021/01/22 21:37:31;;;;;;;12.47;5.63;;;;;;;6.99;67.15;98945.84;5000441;57;1140466;-91
2021/01/22 21:42:37;;;;;;;9.07;4.10;;;;;;;6.95;67.30;98950.53;5020663;57;1134378;-90
2021/01/22 21:47:43;;;;;;;7.30;3.30;;;;;;;6.91;67.31;98949.13;4867708;59;1132374;-90
2021/01/22 21:52:49;;;;;;;5.90;2.70;;;;;;;6.92;67.42;98953.90;4887887;59;1134369;-90
2021/01/22 21:57:54;;;;;;;8.80;3.52;;;;;;;6.96;67.46;98950.05;4997091;57;1134323;-90
2021/01/22 22:03:00;;;;;;;7.50;3.17;;;;;;;6.91;67.54;98954.86;5000141;57;1134547;-90
2021/01/22 22:08:06;;;;;;;6.40;3.60;;;;;;;6.80;67.60;98977.31;4999927;57;1131964;-90
2021/01/22 22:13:11;;;;;;;5.67;3.05;;;;;;;6.64;67.91;98990.45;5001369;57;1132205;-90
2021/01/22 22:18:17;;;;;;;14.63;3.10;;;;;;;6.57;68.02;98988.50;4886120;59;1134431;-90
2021/01/22 22:23:23;;;;;;;4.87;2.92;;;;;;;6.55;68.24;98998.30;5001169;57;1136478;-90
2021/01/22 22:28:30;;;;;;;3.10;2.08;;;;;;;6.53;68.37;99002.37;4998965;57;1131995;-90
2021/01/22 22:33:36;;;;;;;4.73;2.80;;;;;;;6.47;68.42;99004.19;5020832;57;1132416;-90
2021/01/22 22:38:42;;;;;;;7.27;4.30;;;;;;;6.46;68.45;99010.87;4998709;57;1134264;-90
2021/01/22 22:43:48;;;;;;;14.03;6.37;;;;;;;6.41;68.55;99023.11;5001874;57;1132324;-91
2021/01/22 22:48:56;;;;;;;14.97;4.10;;;;;;;6.34;68.81;99037.22;4894838;59;1134434;-90
2021/01/22 22:54:02;;;;;;;13.43;4.93;;;;;;;6.34;68.78;99033.28;4996198;57;1136645;-90
2021/01/22 22:59:07;;;;;;;6.77;2.87;;;;;;;6.32;68.96;99045.70;5001372;57;1134094;-90
2021/01/22 23:04:13;;;;;;;6.90;3.10;;;;;;;6.28;69.16;99053.47;5019061;57;1132528;-90
2021/01/22 23:09:19;;;;;;;8.90;3.20;;;;;;;6.21;69.10;99054.96;5001184;57;1134398;-90
2021/01/22 23:14:25;;;;;;;11.03;5.27;;;;;;;6.18;69.25;99055.20;5001364;57;1132372;-90
2021/01/22 23:19:34;;;;;;;8.78;3.60;;;;;;;6.22;69.49;99046.13;4863982;59;1134636;-90
2021/01/22 23:24:42;;;;;;;112.95;61.25;;;;;;;6.26;69.40;99044.89;5020800;57;1132953;-90
2021/01/22 23:29:47;;;;;;;43.30;22.67;;;;;;;6.31;69.29;99037.95;5000143;57;1140561;-90
2021/01/22 23:34:53;;;;;;;24.30;10.90;;;;;;;6.30;69.15;99024.47;4870278;59;1138736;-90
2021/01/22 23:39:58;;;;;;;37.50;16.07;;;;;;;6.32;69.45;99021.23;4932291;57;1136575;-91
2021/01/22 23:45:07;;;;;;;24.07;9.87;;;;;;;6.30;69.35;99010.03;4945690;57;1136181;-91
2021/01/22 23:50:13;;;;;;;30.07;10.93;;;;;;;6.33;69.51;99018.48;4930074;57;1134350;-90
2021/01/22 23:55:19;;;;;;;21.43;9.53;;;;;;;6.34;69.31;99031.13;4929436;57;1136265;-90
